sensor_id;sensor_type;location;lat;lon;timestamp;pressure;altitude;pressure_sealevel;temperature;humidity
13029;BME280;6581;42.662;23.402;2023-03-15T00:01:14;94378.94;;;6.70;44.85
13029;BME280;6581;42.662;23.402;2023-03-15T00:03:45;94371.75;;;6.67;45.46
13029;BME280;6581;42.662;23.402;2023-03-15T00:06:13;94369.84;;;6.64;44.93
13029;BME280;6581;42.662;23.402;2023-03-15T00:08:40;94370.94;;;6.63;45.20
13029;BME280;6581;42.662;23.402;2023-03-15T00:11:12;94361.81;;;6.57;45.02
13029;BME280;6581;42.662;23.402;2023-03-15T00:13:39;94356.91;;;6.55;44.50
13029;BME280;6581;42.662;23.402;2023-03-15T00:16:31;94358.59;;;6.41;47.06
13029;BME280;6581;42.662;23.402;2023-03-15T00:19:00;94360.09;;;6.42;46.93
13029;BME280;6581;42.662;23.402;2023-03-15T00:21:27;94365.72;;;6.40;44.84
13029;BME280;6581;42.662;23.402;2023-03-15T00:23:54;94364.25;;;6.43;44.85
13029;BME280;6581;42.662;23.402;2023-03-15T00:26:21;94364.19;;;6.39;45.55
13029;BME280;6581;42.662;23.402;2023-03-15T00:28:48;94368.97;;;6.34;46.41
13029;BME280;6581;42.662;23.402;2023-03-15T00:31:18;94368.13;;;6.26;46.24
13029;BME280;6581;42.662;23.402;2023-03-15T00:33:45;94368.31;;;6.37;44.84
13029;BME280;6581;42.662;23.402;2023-03-15T00:36:15;94364.25;;;6.43;44.49
13029;BME280;6581;42.662;23.402;2023-03-15T00:38:42;94353.72;;;6.43;44.39
13029;BME280;6581;42.662;23.402;2023-03-15T00:41:11;94352.66;;;6.47;44.24
13029;BME280;6581;42.662;23.402;2023-03-15T00:43:39;94354.09;;;6.41;47.00
13029;BME280;6581;42.662;23.402;2023-03-15T00:46:07;94351.03;;;6.39;46.83
13029;BME280;6581;42.662;23.402;2023-03-15T00:48:34;94344.91;;;6.32;47.87
13029;BME280;6581;42.662;23.402;2023-03-15T00:51:04;94346.75;;;6.28;45.97
13029;BME280;6581;42.662;23.402;2023-03-15T00:53:57;94346.06;;;6.34;46.26
13029;BME280;6581;42.662;23.402;2023-03-15T00:56:25;94342.28;;;6.32;46.52
13029;BME280;6581;42.662;23.402;2023-03-15T00:58:57;94341.53;;;6.31;46.02
13029;BME280;6581;42.662;23.402;2023-03-15T01:01:26;94334.50;;;6.39;47.09
13029;BME280;6581;42.662;23.402;2023-03-15T01:03:55;94329.34;;;6.46;47.37
13029;BME280;6581;42.662;23.402;2023-03-15T01:06:25;94326.78;;;6.49;47.18
13029;BME280;6581;42.662;23.402;2023-03-15T01:08:53;94324.91;;;6.50;47.59
13029;BME280;6581;42.662;23.402;2023-03-15T01:11:24;94318.97;;;6.56;47.34
13029;BME280;6581;42.662;23.402;2023-03-15T01:13:51;94321.59;;;6.56;45.37
13029;BME280;6581;42.662;23.402;2023-03-15T01:16:19;94319.56;;;6.46;45.64
13029;BME280;6581;42.662;23.402;2023-03-15T01:18:46;94309.81;;;6.47;45.90
13029;BME280;6581;42.662;23.402;2023-03-15T01:21:14;94309.81;;;6.47;46.25
13029;BME280;6581;42.662;23.402;2023-03-15T01:23:44;94301.22;;;6.50;45.87
13029;BME280;6581;42.662;23.402;2023-03-15T01:26:13;94296.34;;;6.52;46.15
13029;BME280;6581;42.662;23.402;2023-03-15T01:28:42;94295.66;;;6.55;45.54
13029;BME280;6581;42.662;23.402;2023-03-15T01:31:13;94303.47;;;6.51;45.82
13029;BME280;6581;42.662;23.402;2023-03-15T01:33:44;94302.13;;;6.61;46.86
13029;BME280;6581;42.662;23.402;2023-03-15T01:36:37;94301.00;;;6.62;45.63
13029;BME280;6581;42.662;23.402;2023-03-15T01:39:04;94294.25;;;6.64;44.57
13029;BME280;6581;42.662;23.402;2023-03-15T01:41:39;94293.13;;;6.62;44.43
13029;BME280;6581;42.662;23.402;2023-03-15T01:44:11;94284.25;;;6.47;43.83
13029;BME280;6581;42.662;23.402;2023-03-15T01:46:39;94281.28;;;6.49;44.63
13029;BME280;6581;42.662;23.402;2023-03-15T01:49:29;94284.75;;;6.56;44.93
13029;BME280;6581;42.662;23.402;2023-03-15T01:52:01;94275.88;;;6.38;44.83
13029;BME280;6581;42.662;23.402;2023-03-15T01:54:52;94285.59;;;6.34;44.83
13029;BME280;6581;42.662;23.402;2023-03-15T01:57:24;94266.81;;;6.36;46.23
13029;BME280;6581;42.662;23.402;2023-03-15T01:59:57;94263.09;;;6.37;46.31
13029;BME280;6581;42.662;23.402;2023-03-15T02:02:26;94266.72;;;6.29;46.58
13029;BME280;6581;42.662;23.402;2023-03-15T02:04:57;94272.88;;;6.13;46.88
13029;BME280;6581;42.662;23.402;2023-03-15T02:07:28;94270.13;;;6.06;48.82
13029;BME280;6581;42.662;23.402;2023-03-15T02:10:03;94267.16;;;6.08;49.76
13029;BME280;6581;42.662;23.402;2023-03-15T02:12:37;94253.97;;;6.04;47.91
13029;BME280;6581;42.662;23.402;2023-03-15T02:15:08;94250.75;;;5.92;48.49
13029;BME280;6581;42.662;23.402;2023-03-15T02:17:38;94247.31;;;5.88;50.03
13029;BME280;6581;42.662;23.402;2023-03-15T02:20:15;94233.69;;;5.82;50.44
13029;BME280;6581;42.662;23.402;2023-03-15T02:22:49;94237.31;;;5.74;48.62
13029;BME280;6581;42.662;23.402;2023-03-15T02:25:47;94235.34;;;5.67;49.65
13029;BME280;6581;42.662;23.402;2023-03-15T02:28:20;94234.69;;;5.51;49.65
13029;BME280;6581;42.662;23.402;2023-03-15T02:30:47;94232.59;;;5.60;49.68
13029;BME280;6581;42.662;23.402;2023-03-15T02:33:19;94231.00;;;5.56;49.95
13029;BME280;6581;42.662;23.402;2023-03-15T02:36:17;94229.03;;;5.49;49.94
13029;BME280;6581;42.662;23.402;2023-03-15T02:38:44;94224.66;;;5.34;51.25
13029;BME280;6581;42.662;23.402;2023-03-15T02:41:14;94232.19;;;5.35;51.06
13029;BME280;6581;42.662;23.402;2023-03-15T02:43:44;94239.34;;;5.39;51.86
13029;BME280;6581;42.662;23.402;2023-03-15T02:46:13;94235.63;;;5.40;51.68
13029;BME280;6581;42.662;23.402;2023-03-15T02:48:41;94231.66;;;5.26;51.34
13029;BME280;6581;42.662;23.402;2023-03-15T02:51:34;94224.44;;;5.23;51.02
13029;BME280;6581;42.662;23.402;2023-03-15T02:54:01;94230.41;;;5.20;51.94
13029;BME280;6581;42.662;23.402;2023-03-15T02:56:28;94226.63;;;5.18;51.60
13029;BME280;6581;42.662;23.402;2023-03-15T02:58:59;94215.16;;;5.07;52.37
13029;BME280;6581;42.662;23.402;2023-03-15T03:01:26;94222.94;;;5.22;53.00
13029;BME280;6581;42.662;23.402;2023-03-15T03:03:54;94217.44;;;5.08;53.87
13029;BME280;6581;42.662;23.402;2023-03-15T03:06:21;94214.13;;;5.11;53.64
13029;BME280;6581;42.662;23.402;2023-03-15T03:09:14;94222.06;;;5.15;53.76
13029;BME280;6581;42.662;23.402;2023-03-15T03:11:41;94212.75;;;5.17;54.29
13029;BME280;6581;42.662;23.402;2023-03-15T03:14:11;94205.47;;;5.11;53.67
13029;BME280;6581;42.662;23.402;2023-03-15T03:16:39;94197.59;;;5.11;53.21
13029;BME280;6581;42.662;23.402;2023-03-15T03:19:08;94201.47;;;5.17;53.00
13029;BME280;6581;42.662;23.402;2023-03-15T03:21:38;94194.31;;;4.95;53.11
13029;BME280;6581;42.662;23.402;2023-03-15T03:24:33;94190.66;;;4.99;53.94
13029;BME280;6581;42.662;23.402;2023-03-15T03:27:00;94193.28;;;4.99;54.70
13029;BME280;6581;42.662;23.402;2023-03-15T03:29:32;94194.72;;;4.97;55.91
13029;BME280;6581;42.662;23.402;2023-03-15T03:32:01;94188.03;;;4.99;56.14
13029;BME280;6581;42.662;23.402;2023-03-15T03:34:28;94188.56;;;5.08;56.36
13029;BME280;6581;42.662;23.402;2023-03-15T03:36:56;94186.69;;;5.09;54.72
13029;BME280;6581;42.662;23.402;2023-03-15T03:39:39;94181.84;;;5.11;53.86
13029;BME280;6581;42.662;23.402;2023-03-15T03:42:07;94178.81;;;5.09;54.12
13029;BME280;6581;42.662;23.402;2023-03-15T03:44:36;94176.19;;;5.09;53.81
13029;BME280;6581;42.662;23.402;2023-03-15T03:47:29;94174.97;;;5.03;54.74
13029;BME280;6581;42.662;23.402;2023-03-15T03:49:56;94175.19;;;4.94;56.31
13029;BME280;6581;42.662;23.402;2023-03-15T03:52:23;94174.78;;;4.92;57.23
13029;BME280;6581;42.662;23.402;2023-03-15T03:54:53;94173.34;;;4.95;56.38
13029;BME280;6581;42.662;23.402;2023-03-15T03:57:20;94170.34;;;4.96;55.55
13029;BME280;6581;42.662;23.402;2023-03-15T03:59:49;94172.22;;;4.96;56.42
13029;BME280;6581;42.662;23.402;2023-03-15T04:02:16;94165.84;;;4.97;56.91
13029;BME280;6581;42.662;23.402;2023-03-15T04:04:53;94168.00;;;4.91;57.07
13029;BME280;6581;42.662;23.402;2023-03-15T04:07:21;94172.91;;;4.93;58.11
13029;BME280;6581;42.662;23.402;2023-03-15T04:09:48;94164.41;;;4.99;57.44
13029;BME280;6581;42.662;23.402;2023-03-15T04:12:16;94160.94;;;4.95;56.75
13029;BME280;6581;42.662;23.402;2023-03-15T04:14:46;94156.75;;;4.90;56.99
13029;BME280;6581;42.662;23.402;2023-03-15T04:17:15;94154.50;;;4.89;56.94
13029;BME280;6581;42.662;23.402;2023-03-15T04:19:42;94147.19;;;4.79;57.19
13029;BME280;6581;42.662;23.402;2023-03-15T04:22:11;94147.19;;;4.79;58.45
13029;BME280;6581;42.662;23.402;2023-03-15T04:25:09;94143.69;;;4.71;58.26
13029;BME280;6581;42.662;23.402;2023-03-15T04:27:52;94140.78;;;4.76;59.09
13029;BME280;6581;42.662;23.402;2023-03-15T04:30:47;94147.22;;;4.82;58.75
13029;BME280;6581;42.662;23.402;2023-03-15T04:33:28;94148.81;;;4.87;58.69
13029;BME280;6581;42.662;23.402;2023-03-15T04:36:03;94143.34;;;4.96;58.58
13029;BME280;6581;42.662;23.402;2023-03-15T04:38:30;94142.38;;;5.04;59.46
13029;BME280;6581;42.662;23.402;2023-03-15T04:41:35;94142.44;;;5.07;58.25
13029;BME280;6581;42.662;23.402;2023-03-15T04:44:26;94148.31;;;5.01;57.50
13029;BME280;6581;42.662;23.402;2023-03-15T04:47:02;94146.34;;;5.17;56.67
13029;BME280;6581;42.662;23.402;2023-03-15T04:50:08;94149.78;;;5.21;55.84
13029;BME280;6581;42.662;23.402;2023-03-15T04:52:52;94152.88;;;5.26;56.02
13029;BME280;6581;42.662;23.402;2023-03-15T04:55:37;94155.66;;;5.14;57.23
13029;BME280;6581;42.662;23.402;2023-03-15T04:58:18;94166.59;;;5.16;57.86
13029;BME280;6581;42.662;23.402;2023-03-15T05:01:02;94153.13;;;5.18;56.98
13029;BME280;6581;42.662;23.402;2023-03-15T05:03:47;94150.19;;;5.23;57.39
13029;BME280;6581;42.662;23.402;2023-03-15T05:06:55;94155.63;;;5.33;58.15
13029;BME280;6581;42.662;23.402;2023-03-15T05:09:34;94144.28;;;5.29;59.26
13029;BME280;6581;42.662;23.402;2023-03-15T05:12:28;94155.56;;;5.30;59.02
13029;BME280;6581;42.662;23.402;2023-03-15T05:15:27;94149.34;;;5.42;58.24
13029;BME280;6581;42.662;23.402;2023-03-15T05:18:02;94153.78;;;5.60;58.18
13029;BME280;6581;42.662;23.402;2023-03-15T05:21:01;94140.69;;;5.64;58.11
13029;BME280;6581;42.662;23.402;2023-03-15T05:24:09;94149.41;;;5.68;59.04
13029;BME280;6581;42.662;23.402;2023-03-15T05:26:52;94148.00;;;5.77;58.09
13029;BME280;6581;42.662;23.402;2023-03-15T05:29:26;94140.91;;;5.78;58.05
13029;BME280;6581;42.662;23.402;2023-03-15T05:32:11;94141.94;;;5.96;57.13
13029;BME280;6581;42.662;23.402;2023-03-15T05:35:11;94136.44;;;5.82;52.78
13029;BME280;6581;42.662;23.402;2023-03-15T05:37:57;94135.81;;;5.89;51.62
13029;BME280;6581;42.662;23.402;2023-03-15T05:40:52;94142.84;;;5.81;52.77
13029;BME280;6581;42.662;23.402;2023-03-15T05:43:34;94132.44;;;5.88;52.67
13029;BME280;6581;42.662;23.402;2023-03-15T05:46:39;94139.97;;;5.90;52.24
13029;BME280;6581;42.662;23.402;2023-03-15T05:49:26;94144.25;;;5.75;52.19
13029;BME280;6581;42.662;23.402;2023-03-15T05:52:08;94132.28;;;5.55;53.25
13029;BME280;6581;42.662;23.402;2023-03-15T05:54:58;94131.44;;;5.47;53.71
13029;BME280;6581;42.662;23.402;2023-03-15T05:57:49;94132.50;;;5.20;55.57
13029;BME280;6581;42.662;23.402;2023-03-15T06:00:35;94148.59;;;5.18;56.05
13029;BME280;6581;42.662;23.402;2023-03-15T06:03:12;94154.50;;;5.34;57.05
13029;BME280;6581;42.662;23.402;2023-03-15T06:05:52;94139.66;;;5.46;56.66
13029;BME280;6581;42.662;23.402;2023-03-15T06:08:28;94144.91;;;5.46;57.17
13029;BME280;6581;42.662;23.402;2023-03-15T06:10:56;94142.94;;;5.39;57.44
13029;BME280;6581;42.662;23.402;2023-03-15T06:13:25;94145.53;;;5.35;58.48
13029;BME280;6581;42.662;23.402;2023-03-15T06:15:52;94143.81;;;5.47;58.65
13029;BME280;6581;42.662;23.402;2023-03-15T06:18:21;94141.00;;;5.59;58.54
13029;BME280;6581;42.662;23.402;2023-03-15T06:20:49;94130.56;;;5.62;59.66
13029;BME280;6581;42.662;23.402;2023-03-15T06:23:18;94128.38;;;5.68;59.96
13029;BME280;6581;42.662;23.402;2023-03-15T06:25:46;94130.84;;;5.84;61.43
13029;BME280;6581;42.662;23.402;2023-03-15T06:28:14;94137.03;;;5.95;60.30
13029;BME280;6581;42.662;23.402;2023-03-15T06:30:49;94129.84;;;6.18;59.53
13029;BME280;6581;42.662;23.402;2023-03-15T06:33:17;94131.44;;;6.26;59.05
13029;BME280;6581;42.662;23.402;2023-03-15T06:35:45;94122.16;;;6.36;58.18
13029;BME280;6581;42.662;23.402;2023-03-15T06:38:13;94128.50;;;6.31;58.51
13029;BME280;6581;42.662;23.402;2023-03-15T06:40:40;94127.81;;;6.38;58.15
13029;BME280;6581;42.662;23.402;2023-03-15T06:43:07;94123.41;;;6.45;57.46
13029;BME280;6581;42.662;23.402;2023-03-15T06:45:34;94127.97;;;6.52;57.97
13029;BME280;6581;42.662;23.402;2023-03-15T06:48:05;94120.22;;;6.62;56.55
13029;BME280;6581;42.662;23.402;2023-03-15T06:50:32;94116.25;;;6.79;55.81
13029;BME280;6581;42.662;23.402;2023-03-15T06:52:59;94126.88;;;6.90;55.78
13029;BME280;6581;42.662;23.402;2023-03-15T06:55:27;94121.78;;;7.07;55.16
13029;BME280;6581;42.662;23.402;2023-03-15T06:57:54;94119.56;;;7.09;53.97
13029;BME280;6581;42.662;23.402;2023-03-15T07:00:21;94118.03;;;7.08;53.26
13029;BME280;6581;42.662;23.402;2023-03-15T07:02:48;94109.50;;;7.22;53.04
13029;BME280;6581;42.662;23.402;2023-03-15T07:05:17;94101.28;;;7.27;51.04
13029;BME280;6581;42.662;23.402;2023-03-15T07:07:44;94108.38;;;7.23;50.50
13029;BME280;6581;42.662;23.402;2023-03-15T07:10:36;94120.41;;;7.24;49.41
13029;BME280;6581;42.662;23.402;2023-03-15T07:13:03;94114.06;;;7.29;49.54
13029;BME280;6581;42.662;23.402;2023-03-15T07:15:31;94108.41;;;7.27;50.24
13029;BME280;6581;42.662;23.402;2023-03-15T07:17:59;94105.78;;;7.27;52.30
13029;BME280;6581;42.662;23.402;2023-03-15T07:20:28;94107.75;;;7.37;51.59
13029;BME280;6581;42.662;23.402;2023-03-15T07:22:55;94110.44;;;7.44;52.06
13029;BME280;6581;42.662;23.402;2023-03-15T07:25:23;94116.13;;;7.49;53.02
13029;BME280;6581;42.662;23.402;2023-03-15T07:27:51;94105.69;;;7.67;53.73
13029;BME280;6581;42.662;23.402;2023-03-15T07:30:19;94102.50;;;7.98;53.48
13029;BME280;6581;42.662;23.402;2023-03-15T07:32:46;94090.50;;;8.08;51.84
13029;BME280;6581;42.662;23.402;2023-03-15T07:35:14;94084.72;;;7.88;52.89
13029;BME280;6581;42.662;23.402;2023-03-15T07:37:44;94090.47;;;8.01;52.35
13029;BME280;6581;42.662;23.402;2023-03-15T07:40:11;94097.28;;;8.13;51.43
13029;BME280;6581;42.662;23.402;2023-03-15T07:42:40;94111.41;;;8.49;51.31
13029;BME280;6581;42.662;23.402;2023-03-15T07:45:08;94103.53;;;8.52;50.83
13029;BME280;6581;42.662;23.402;2023-03-15T07:47:36;94111.00;;;8.36;50.93
13029;BME280;6581;42.662;23.402;2023-03-15T07:50:04;94106.00;;;8.20;51.65
13029;BME280;6581;42.662;23.402;2023-03-15T07:52:31;94109.72;;;8.12;52.09
13029;BME280;6581;42.662;23.402;2023-03-15T07:54:59;94095.91;;;8.33;51.55
13029;BME280;6581;42.662;23.402;2023-03-15T07:57:27;94096.28;;;8.35;51.50
13029;BME280;6581;42.662;23.402;2023-03-15T07:59:54;94100.13;;;8.55;51.82
13029;BME280;6581;42.662;23.402;2023-03-15T08:02:24;94096.81;;;8.86;50.76
13029;BME280;6581;42.662;23.402;2023-03-15T08:04:52;94088.56;;;9.09;48.73
13029;BME280;6581;42.662;23.402;2023-03-15T08:07:19;94086.69;;;9.34;48.27
13029;BME280;6581;42.662;23.402;2023-03-15T08:09:46;94087.03;;;9.75;48.24
13029;BME280;6581;42.662;23.402;2023-03-15T08:12:14;94088.50;;;9.91;46.32
13029;BME280;6581;42.662;23.402;2023-03-15T08:14:41;94080.53;;;10.05;45.56
13029;BME280;6581;42.662;23.402;2023-03-15T08:17:09;94083.94;;;10.12;45.93
13029;BME280;6581;42.662;23.402;2023-03-15T08:19:38;94072.94;;;10.35;44.30
13029;BME280;6581;42.662;23.402;2023-03-15T08:22:05;94060.38;;;10.46;43.48
13029;BME280;6581;42.662;23.402;2023-03-15T08:24:33;94056.25;;;10.42;44.84
13029;BME280;6581;42.662;23.402;2023-03-15T08:27:00;94041.09;;;10.46;43.27
13029;BME280;6581;42.662;23.402;2023-03-15T08:29:28;94059.22;;;10.58;42.64
13029;BME280;6581;42.662;23.402;2023-03-15T08:31:56;94059.91;;;10.65;42.09
13029;BME280;6581;42.662;23.402;2023-03-15T08:34:23;94057.69;;;10.57;41.66
13029;BME280;6581;42.662;23.402;2023-03-15T08:36:51;94064.09;;;10.63;42.34
13029;BME280;6581;42.662;23.402;2023-03-15T08:39:18;94068.25;;;10.68;42.65
13029;BME280;6581;42.662;23.402;2023-03-15T08:41:45;94061.38;;;10.74;43.30
13029;BME280;6581;42.662;23.402;2023-03-15T08:44:12;94059.47;;;10.81;42.83
13029;BME280;6581;42.662;23.402;2023-03-15T08:46:41;94061.69;;;10.90;42.35
13029;BME280;6581;42.662;23.402;2023-03-15T08:49:08;94049.22;;;10.83;41.14
13029;BME280;6581;42.662;23.402;2023-03-15T08:51:35;94051.03;;;10.97;41.36
13029;BME280;6581;42.662;23.402;2023-03-15T08:54:02;94054.13;;;10.85;42.26
13029;BME280;6581;42.662;23.402;2023-03-15T08:56:29;94056.31;;;10.97;42.29
13029;BME280;6581;42.662;23.402;2023-03-15T08:58:58;94055.63;;;10.89;42.01
13029;BME280;6581;42.662;23.402;2023-03-15T09:01:25;94057.50;;;10.89;41.50
13029;BME280;6581;42.662;23.402;2023-03-15T09:03:56;94065.00;;;11.01;41.48
13029;BME280;6581;42.662;23.402;2023-03-15T09:06:23;94064.00;;;11.32;41.94
13029;BME280;6581;42.662;23.402;2023-03-15T09:08:50;94059.53;;;11.70;41.65
13029;BME280;6581;42.662;23.402;2023-03-15T09:11:18;94063.19;;;11.87;40.09
13029;BME280;6581;42.662;23.402;2023-03-15T09:13:45;94061.94;;;11.98;39.22
13029;BME280;6581;42.662;23.402;2023-03-15T09:16:12;94059.75;;;12.24;39.30
13029;BME280;6581;42.662;23.402;2023-03-15T09:18:40;94059.59;;;12.04;39.41
13029;BME280;6581;42.662;23.402;2023-03-15T09:21:10;94060.38;;;12.01;39.68
13029;BME280;6581;42.662;23.402;2023-03-15T09:23:37;94062.97;;;12.08;39.59
13029;BME280;6581;42.662;23.402;2023-03-15T09:26:04;94062.44;;;12.20;39.06
13029;BME280;6581;42.662;23.402;2023-03-15T09:28:32;94067.69;;;12.27;38.35
13029;BME280;6581;42.662;23.402;2023-03-15T09:31:03;94062.66;;;12.33;39.41
13029;BME280;6581;42.662;23.402;2023-03-15T09:33:30;94060.69;;;12.07;38.97
13029;BME280;6581;42.662;23.402;2023-03-15T09:35:58;94054.81;;;11.88;39.88
13029;BME280;6581;42.662;23.402;2023-03-15T09:38:27;94051.22;;;11.65;39.69
13029;BME280;6581;42.662;23.402;2023-03-15T09:40:56;94044.25;;;11.85;39.03
13029;BME280;6581;42.662;23.402;2023-03-15T09:43:38;94051.84;;;11.83;39.39
13029;BME280;6581;42.662;23.402;2023-03-15T09:46:20;94047.31;;;12.17;39.64
13029;BME280;6581;42.662;23.402;2023-03-15T09:48:53;94038.91;;;12.22;38.73
13029;BME280;6581;42.662;23.402;2023-03-15T09:51:30;94039.47;;;12.40;38.38
13029;BME280;6581;42.662;23.402;2023-03-15T09:54:03;94029.34;;;12.28;38.70
13029;BME280;6581;42.662;23.402;2023-03-15T09:56:34;94027.53;;;12.22;38.02
13029;BME280;6581;42.662;23.402;2023-03-15T09:59:02;94031.66;;;12.26;38.88
13029;BME280;6581;42.662;23.402;2023-03-15T10:01:31;94030.38;;;12.38;38.73
13029;BME280;6581;42.662;23.402;2023-03-15T10:04:07;94031.91;;;12.05;37.61
13029;BME280;6581;42.662;23.402;2023-03-15T10:06:37;94035.22;;;11.79;38.49
13029;BME280;6581;42.662;23.402;2023-03-15T10:09:14;94032.88;;;11.84;38.14
13029;BME280;6581;42.662;23.402;2023-03-15T10:11:48;94033.25;;;11.86;38.53
13029;BME280;6581;42.662;23.402;2023-03-15T10:14:27;94033.09;;;12.01;38.50
13029;BME280;6581;42.662;23.402;2023-03-15T10:16:58;94030.84;;;11.99;39.13
13029;BME280;6581;42.662;23.402;2023-03-15T10:19:31;94024.22;;;12.14;39.15
13029;BME280;6581;42.662;23.402;2023-03-15T10:22:08;94025.31;;;12.47;38.95
13029;BME280;6581;42.662;23.402;2023-03-15T10:24:43;94027.34;;;12.93;38.03
13029;BME280;6581;42.662;23.402;2023-03-15T10:27:20;94031.19;;;13.19;36.88
13029;BME280;6581;42.662;23.402;2023-03-15T10:29:48;94021.56;;;13.25;37.20
13029;BME280;6581;42.662;23.402;2023-03-15T10:32:21;94025.47;;;13.44;36.44
13029;BME280;6581;42.662;23.402;2023-03-15T10:34:55;94020.56;;;13.42;36.67
13029;BME280;6581;42.662;23.402;2023-03-15T10:37:24;94017.78;;;13.26;37.24
13029;BME280;6581;42.662;23.402;2023-03-15T10:39:55;94024.09;;;13.09;36.37
13029;BME280;6581;42.662;23.402;2023-03-15T10:42:28;94021.94;;;13.00;36.95
13029;BME280;6581;42.662;23.402;2023-03-15T10:44:56;94022.47;;;13.18;36.52
13029;BME280;6581;42.662;23.402;2023-03-15T10:47:25;94010.31;;;13.41;37.11
13029;BME280;6581;42.662;23.402;2023-03-15T10:49:56;94017.38;;;13.01;36.42
13029;BME280;6581;42.662;23.402;2023-03-15T10:52:31;94014.13;;;12.89;36.95
13029;BME280;6581;42.662;23.402;2023-03-15T10:55:04;94016.91;;;12.82;37.07
13029;BME280;6581;42.662;23.402;2023-03-15T10:57:36;94015.25;;;12.92;36.76
13029;BME280;6581;42.662;23.402;2023-03-15T11:00:17;94019.50;;;13.13;36.91
13029;BME280;6581;42.662;23.402;2023-03-15T11:02:50;94017.41;;;12.97;37.95
13029;BME280;6581;42.662;23.402;2023-03-15T11:05:18;94012.06;;;13.01;37.46
13029;BME280;6581;42.662;23.402;2023-03-15T11:07:54;94014.13;;;12.89;37.38
13029;BME280;6581;42.662;23.402;2023-03-15T11:10:25;94007.22;;;12.69;37.68
13029;BME280;6581;42.662;23.402;2023-03-15T11:13:08;94007.22;;;12.69;37.58
13029;BME280;6581;42.662;23.402;2023-03-15T11:15:36;93999.03;;;12.56;38.00
13029;BME280;6581;42.662;23.402;2023-03-15T11:18:03;93997.28;;;12.46;38.09
13029;BME280;6581;42.662;23.402;2023-03-15T11:20:34;94000.13;;;12.32;38.20
13029;BME280;6581;42.662;23.402;2023-03-15T11:23:13;93993.88;;;12.46;37.64
13029;BME280;6581;42.662;23.402;2023-03-15T11:25:42;94006.66;;;12.54;39.31
13029;BME280;6581;42.662;23.402;2023-03-15T11:28:15;94009.00;;;12.75;38.11
13029;BME280;6581;42.662;23.402;2023-03-15T11:30:44;94007.59;;;12.94;37.38
13029;BME280;6581;42.662;23.402;2023-03-15T11:33:30;94004.25;;;12.90;37.74
13029;BME280;6581;42.662;23.402;2023-03-15T11:36:02;94002.19;;;13.01;37.29
13029;BME280;6581;42.662;23.402;2023-03-15T11:38:32;93999.41;;;13.08;37.06
13029;BME280;6581;42.662;23.402;2023-03-15T11:41:32;93992.28;;;13.28;36.68
13029;BME280;6581;42.662;23.402;2023-03-15T11:44:07;93991.84;;;13.34;36.81
13029;BME280;6581;42.662;23.402;2023-03-15T11:46:41;93993.50;;;13.47;37.17
13029;BME280;6581;42.662;23.402;2023-03-15T11:49:14;93987.88;;;13.42;36.86
13029;BME280;6581;42.662;23.402;2023-03-15T11:51:43;93988.97;;;13.21;36.96
13029;BME280;6581;42.662;23.402;2023-03-15T11:54:12;93991.09;;;13.33;36.84
13029;BME280;6581;42.662;23.402;2023-03-15T11:56:48;93990.25;;;13.36;37.01
13029;BME280;6581;42.662;23.402;2023-03-15T11:59:20;93986.97;;;13.28;37.46
13029;BME280;6581;42.662;23.402;2023-03-15T12:01:52;93986.66;;;13.46;37.41
13029;BME280;6581;42.662;23.402;2023-03-15T12:04:40;93992.41;;;13.21;37.56
13029;BME280;6581;42.662;23.402;2023-03-15T12:10:41;93971.47;;;13.47;37.94
13029;BME280;6581;42.662;23.402;2023-03-15T12:13:19;93967.28;;;13.46;37.41
13029;BME280;6581;42.662;23.402;2023-03-15T12:15:48;93970.34;;;13.44;36.89
13029;BME280;6581;42.662;23.402;2023-03-15T12:18:23;93953.38;;;13.38;37.53
13029;BME280;6581;42.662;23.402;2023-03-15T12:21:04;93956.09;;;13.35;37.42
13029;BME280;6581;42.662;23.402;2023-03-15T12:23:37;93953.66;;;13.20;37.41
13029;BME280;6581;42.662;23.402;2023-03-15T12:26:08;93959.44;;;13.15;38.27
13029;BME280;6581;42.662;23.402;2023-03-15T12:28:39;93964.84;;;13.08;38.69
13029;BME280;6581;42.662;23.402;2023-03-15T12:31:10;93956.88;;;13.08;37.99
13029;BME280;6581;42.662;23.402;2023-03-15T12:33:45;93960.56;;;12.91;37.76
13029;BME280;6581;42.662;23.402;2023-03-15T12:36:20;93959.09;;;13.13;37.74
13029;BME280;6581;42.662;23.402;2023-03-15T12:38:58;93956.75;;;13.19;37.14
13029;BME280;6581;42.662;23.402;2023-03-15T12:41:36;93955.03;;;13.05;37.32
13029;BME280;6581;42.662;23.402;2023-03-15T12:44:35;93951.97;;;13.07;38.45
13029;BME280;6581;42.662;23.402;2023-03-15T12:47:04;93942.84;;;13.08;37.93
13029;BME280;6581;42.662;23.402;2023-03-15T12:49:41;93944.81;;;13.04;37.78
13029;BME280;6581;42.662;23.402;2023-03-15T12:52:39;93945.06;;;13.13;38.21
13029;BME280;6581;42.662;23.402;2023-03-15T12:55:14;93957.63;;;13.09;39.06
13029;BME280;6581;42.662;23.402;2023-03-15T12:57:46;93942.28;;;12.97;38.30
13029;BME280;6581;42.662;23.402;2023-03-15T13:00:17;93942.31;;;12.93;38.65
13029;BME280;6581;42.662;23.402;2023-03-15T13:02:49;93945.31;;;12.95;38.83
13029;BME280;6581;42.662;23.402;2023-03-15T13:05:21;93947.06;;;13.05;38.95
13029;BME280;6581;42.662;23.402;2023-03-15T13:07:56;93946.56;;;13.14;38.50
13029;BME280;6581;42.662;23.402;2023-03-15T13:10:36;93939.84;;;13.06;38.61
13029;BME280;6581;42.662;23.402;2023-03-15T13:13:29;93932.97;;;13.08;37.75
13029;BME280;6581;42.662;23.402;2023-03-15T13:16:10;93948.81;;;13.15;37.66
13029;BME280;6581;42.662;23.402;2023-03-15T13:18:47;93941.75;;;13.05;37.31
13029;BME280;6581;42.662;23.402;2023-03-15T13:21:23;93937.00;;;12.93;37.72
13029;BME280;6581;42.662;23.402;2023-03-15T13:23:55;93945.94;;;13.03;37.75
13029;BME280;6581;42.662;23.402;2023-03-15T13:26:40;93946.16;;;13.15;37.60
13029;BME280;6581;42.662;23.402;2023-03-15T13:29:12;93943.50;;;13.15;37.16
13029;BME280;6581;42.662;23.402;2023-03-15T13:31:44;93949.03;;;13.24;37.56
13029;BME280;6581;42.662;23.402;2023-03-15T13:34:13;93946.88;;;13.19;37.65
13029;BME280;6581;42.662;23.402;2023-03-15T13:36:44;93946.91;;;13.16;37.66
13029;BME280;6581;42.662;23.402;2023-03-15T13:39:20;93948.69;;;13.22;37.36
13029;BME280;6581;42.662;23.402;2023-03-15T13:41:55;93958.19;;;13.23;37.98
13029;BME280;6581;42.662;23.402;2023-03-15T13:44:23;93947.13;;;13.25;40.09